Michael S — WDE9794 — position and weather

sailwx.info

Track history (hours):
 
Tides and Currents Weather Stations Pressure Air Temp Water Temp Dewpoint Dewpoint Depression Visibility Wind Speed Wind Dir Waves Ship Positions

Michael S

More information available from US FCC via Universal Licensing System and Coast Guard Vessel Documentation Center.

Last reported at 2014-Jul-19 08:15 UTC. Time now 2014-Jul-26 15:13 UTC.
Position N 29°56' W 090°22'.

Length 33 m; draft 3 m.

Type: Towing. MMSI: 367413700.

Date/timePositionNaut miles runAvg speedWind from/ knotsBaromVisibWave heightAir tempDewpointWater temp
2014-Jul-19 08:15N 29°56' W 090°22'1 0.7
2014-Jul-19 07:22N 29°56' W 090°22'7 8.1
2014-Jul-19 06:31N 29°58' W 090°15'7 6.0
2014-Jul-19 05:20N 29°55' W 090°07'17 0.4
2014-Jul-17 10:18N 29°60' W 090°26'7 3.1
2014-Jul-17 08:09N 29°56' W 090°20'11 4.4
2014-Jul-17 05:33N 29°55' W 090°07'  
2014-Jul-12 14:20N 29°56' W 090°08'0 0.0
2014-Jul-12 13:33N 29°56' W 090°08'0 0.3
2014-Jul-12 12:32N 29°55' W 090°08'6 4.9
2014-Jul-12 11:14N 29°57' W 090°01'0 0.0
2014-Jul-12 10:32N 29°57' W 090°01'1 0.1
2014-Jul-12 03:07N 29°57' W 090°00'20 0.4
2014-Jul-10 02:23N 29°37' W 089°54'0 0.0
2014-Jul-10 01:04N 29°37' W 089°54'  
Track history (hours):
 
Tides and Currents Weather Stations Pressure Air Temp Water Temp Dewpoint Dewpoint Depression Visibility Wind Speed Wind Dir Waves Ship Positions

Michael S

More information available from US FCC via Universal Licensing System and Coast Guard Vessel Documentation Center.

Last reported at 2014-Jul-19 08:15 UTC. Time now 2014-Jul-26 15:13 UTC.
Position N 29°56' W 090°22'.

Length 33 m; draft 3 m.

Type: Towing. MMSI: 367413700.

Date/timePositionNaut miles runAvg speedWind from/ knotsBaromVisibWave heightAir tempDewpointWater temp
2014-Jul-19 08:15N 29°56' W 090°22'1 0.7
2014-Jul-19 07:22N 29°56' W 090°22'7 8.1
2014-Jul-19 06:31N 29°58' W 090°15'7 6.0
2014-Jul-19 05:20N 29°55' W 090°07'17 0.4
2014-Jul-17 10:18N 29°60' W 090°26'7 3.1
2014-Jul-17 08:09N 29°56' W 090°20'11 4.4
2014-Jul-17 05:33N 29°55' W 090°07'  
2014-Jul-12 14:20N 29°56' W 090°08'0 0.0
2014-Jul-12 13:33N 29°56' W 090°08'0 0.3
2014-Jul-12 12:32N 29°55' W 090°08'6 4.9
2014-Jul-12 11:14N 29°57' W 090°01'0 0.0
2014-Jul-12 10:32N 29°57' W 090°01'1 0.1
2014-Jul-12 03:07N 29°57' W 090°00'20 0.4
2014-Jul-10 02:23N 29°37' W 089°54'0 0.0
2014-Jul-10 01:04N 29°37' W 089°54'  

Dump ship's entire track history